Terminal Aerodrome Forecast
Issued by NWS Sioux Falls, SD

Home | Current Version | Previous Version | Graphics & Text | Print | Product List | Glossary On
Versions: 1 2 3 4 5 6 7 8 9 10 11 12 13 14 15 16 17
000
FTUS43 KFSD 211125
TAFFSD
TAF
KFSD 211125Z 2112/2212 30012G18KT P6SM SCT009 OVC012
      TEMPO 2112/2114 BKN009
     FM211500 30015G23KT P6SM OVC015
     FM211700 30016G24KT P6SM OVC025
     FM211900 30016G24KT P6SM BKN035
     FM212000 30016G24KT P6SM SCT040
     FM220000 31010KT P6SM SCT045
     FM220200 24005KT P6SM BKN090=

USA.gov is the U.S. government's official web portal to all federal, state and local government web resources and services.